Time;durP1;ratioP1;P1;durP2;ratioP2;P2;SDS_P1;SDS_P2;PMS_P1;PMS_P2;Temp;Humidity;BMP_temperature;BMP_pressure;BME280_temperature;BME280_humidity;BME280_pressure;Samples;Min_cycle;Max_cycle;Signal;HPM_P1;HPM_P2
2021/08/29 00:00:57;;;;;;;20.77;12.22;;;;;;;;;;362331;144;857392;-60
2021/08/29 00:01:59;;;;;;;15.45;12.11;;;;;;;;;;363112;145;857766;-59
2021/08/29 00:03:00;;;;;;;18.29;12.75;;;;;;;;;;367871;146;866261;-59
2021/08/29 00:04:02;;;;;;;19.22;12.19;;;;;;;;;;362207;148;859392;-60
2021/08/29 00:05:04;;;;;;;19.66;13.08;;;;;;;;;;364895;144;857821;-59
2021/08/29 00:06:06;;;;;;;19.97;12.73;;;;;;;;;;363333;145;864698;-59
2021/08/29 00:07:08;;;;;;;20.88;13.14;;;;;;;;;;362682;145;857282;-59
2021/08/29 00:08:09;;;;;;;16.91;11.69;;;;;;;;;;363100;144;857750;-60
2021/08/29 00:09:11;;;;;;;19.82;12.39;;;;;;;;;;364027;144;859294;-59
2021/08/29 00:10:13;;;;;;;20.21;12.77;;;;;;;;;;362664;148;858191;-59
2021/08/29 00:11:14;;;;;;;17.26;11.67;;;;;;;;;;362661;146;857460;-59
2021/08/29 00:12:16;;;;;;;15.74;12.34;;;;;;;;;;363815;144;857340;-59
2021/08/29 00:13:17;;;;;;;19.30;11.63;;;;;;;;;;362619;144;857207;-58
2021/08/29 00:14:19;;;;;;;15.04;11.42;;;;;;;;;;365670;146;864785;-60
2021/08/29 00:15:21;;;;;;;20.65;11.89;;;;;;;;;;363678;146;857247;-58
2021/08/29 00:16:22;;;;;;;18.53;11.85;;;;;;;;;;363956;146;859776;-59
2021/08/29 00:17:24;;;;;;;28.02;12.36;;;;;;;;;;364820;146;860285;-59
2021/08/29 00:18:26;;;;;;;22.85;12.19;;;;;;;;;;362650;144;858946;-58
2021/08/29 00:19:27;;;;;;;20.41;11.54;;;;;;;;;;364062;145;857269;-59
2021/08/29 00:20:30;;;;;;;19.94;12.31;;;;;;;;;;364855;146;859209;-59
2021/08/29 00:21:32;;;;;;;20.96;11.35;;;;;;;;;;362907;146;856694;-60
2021/08/29 00:22:33;;;;;;;21.51;11.95;;;;;;;;;;365494;144;864905;-59
2021/08/29 00:23:35;;;;;;;25.39;11.86;;;;;;;;;;363832;144;857142;-59
2021/08/29 00:24:36;;;;;;;23.07;11.26;;;;;;;;;;362665;146;857201;-58
2021/08/29 00:25:38;;;;;;;18.34;10.90;;;;;;;;;;362899;144;857127;-60
2021/08/29 00:26:40;;;;;;;19.85;10.99;;;;;;;;;;363621;145;857233;-58
2021/08/29 00:27:42;;;;;;;20.63;11.02;;;;;;;;;;362486;148;857098;-59
2021/08/29 00:28:43;;;;;;;16.21;10.71;;;;;;;;;;368349;146;857228;-59
2021/08/29 00:29:45;;;;;;;17.36;10.78;;;;;;;;;;363693;144;858928;-58
2021/08/29 00:30:48;;;;;;;16.76;10.64;;;;;;;;;;362468;145;857901;-59
2021/08/29 00:31:50;;;;;;;23.19;11.46;;;;;;;;;;362905;146;858115;-59
2021/08/29 00:32:52;;;;;;;15.29;10.24;;;;;;;;;;362880;144;857369;-60
2021/08/29 00:33:54;;;;;;;20.71;11.74;;;;;;;;;;363289;146;857182;-59
2021/08/29 00:34:55;;;;;;;17.59;11.17;;;;;;;;;;362416;146;857072;-59
2021/08/29 00:35:57;;;;;;;19.11;10.89;;;;;;;;;;367009;146;857193;-59
2021/08/29 00:37:00;;;;;;;16.16;10.54;;;;;;;;;;363293;144;860194;-59
2021/08/29 00:38:01;;;;;;;15.14;10.32;;;;;;;;;;362840;144;857993;-59
2021/08/29 00:39:03;;;;;;;14.61;10.54;;;;;;;;;;364235;146;858466;-60
2021/08/29 00:40:05;;;;;;;18.55;10.69;;;;;;;;;;363899;144;857185;-59
2021/08/29 00:41:08;;;;;;;15.25;10.83;;;;;;;;;;364254;144;857768;-59
2021/08/29 00:42:10;;;;;;;18.23;10.78;;;;;;;;;;367699;146;860834;-59
2021/08/29 00:43:11;;;;;;;15.84;9.94;;;;;;;;;;362517;147;866157;-59
2021/08/29 00:44:13;;;;;;;15.36;9.76;;;;;;;;;;362290;145;857175;-59
2021/08/29 00:45:16;;;;;;;13.27;10.17;;;;;;;;;;362434;144;857056;-60
2021/08/29 00:46:18;;;;;;;19.28;10.61;;;;;;;;;;362476;148;858122;-59
2021/08/29 00:47:20;;;;;;;15.26;10.55;;;;;;;;;;362643;144;857221;-60
2021/08/29 00:48:21;;;;;;;14.55;10.16;;;;;;;;;;362537;144;865127;-60
2021/08/29 00:49:23;;;;;;;13.88;10.42;;;;;;;;;;365754;146;858600;-59
2021/08/29 00:50:25;;;;;;;18.26;10.55;;;;;;;;;;365969;146;858891;-59
2021/08/29 00:51:26;;;;;;;20.38;10.36;;;;;;;;;;363363;145;859626;-60
2021/08/29 00:52:28;;;;;;;15.96;9.50;;;;;;;;;;362775;146;857458;-59
2021/08/29 00:53:32;;;;;;;18.50;9.86;;;;;;;;;;364791;146;857322;-59
2021/08/29 00:54:33;;;;;;;17.32;9.96;;;;;;;;;;364683;144;857295;-58
2021/08/29 00:55:35;;;;;;;14.14;9.86;;;;;;;;;;362536;145;859613;-60
2021/08/29 00:56:38;;;;;;;18.06;10.71;;;;;;;;;;362223;148;857132;-59
2021/08/29 00:57:40;;;;;;;17.73;10.31;;;;;;;;;;362862;146;857339;-60
2021/08/29 00:58:43;;;;;;;13.46;9.68;;;;;;;;;;362600;146;864889;-59
2021/08/29 00:59:44;;;;;;;13.94;9.96;;;;;;;;;;363383;144;857631;-59
2021/08/29 01:00:48;;;;;;;15.44;10.93;;;;;;;;;;362779;146;859561;-59
2021/08/29 01:01:53;;;;;;;17.07;9.90;;;;;;;;;;363284;144;859091;-60
2021/08/29 01:02:55;;;;;;;15.96;10.30;;;;;;;;;;363073;144;858247;-58
2021/08/29 01:04:00;;;;;;;17.65;10.01;;;;;;;;;;362573;148;857209;-60
2021/08/29 01:05:07;;;;;;;18.89;10.31;;;;;;;;;;363346;146;859438;-60
2021/08/29 01:06:19;;;;;;;14.78;9.67;;;;;;;;;;363207;146;859729;-58
2021/08/29 01:07:40;;;;;;;15.94;10.00;;;;;;;;;;363731;146;857157;-60
2021/08/29 01:08:41;;;;;;;16.97;11.03;;;;;;;;;;363846;144;859404;-59
2021/08/29 01:09:43;;;;;;;15.95;10.04;;;;;;;;;;363638;144;857105;-59
2021/08/29 01:10:53;;;;;;;14.82;9.76;;;;;;;;;;365353;146;860024;-59
2021/08/29 01:11:55;;;;;;;16.79;10.57;;;;;;;;;;364753;144;857215;-59
2021/08/29 01:12:56;;;;;;;14.26;9.40;;;;;;;;;;363354;146;857640;-59
2021/08/29 01:13:59;;;;;;;14.17;8.96;;;;;;;;;;363153;146;859102;-60
2021/08/29 01:15:01;;;;;;;13.14;8.75;;;;;;;;;;367759;146;857260;-59
2021/08/29 01:16:06;;;;;;;16.27;8.87;;;;;;;;;;363049;144;866677;-60
2021/08/29 01:17:08;;;;;;;16.92;8.83;;;;;;;;;;363571;144;857098;-59
2021/08/29 01:18:10;;;;;;;13.08;8.63;;;;;;;;;;362727;146;858661;-60
2021/08/29 01:19:15;;;;;;;13.86;9.07;;;;;;;;;;364964;144;857337;-59
2021/08/29 01:20:35;;;;;;;13.28;8.74;;;;;;;;;;362299;146;857614;-58
2021/08/29 01:21:37;;;;;;;16.39;9.79;;;;;;;;;;362823;146;857848;-59
2021/08/29 01:22:39;;;;;;;14.91;9.75;;;;;;;;;;362925;144;860414;-59
2021/08/29 01:23:40;;;;;;;15.16;10.01;;;;;;;;;;362506;145;860147;-58
2021/08/29 01:24:42;;;;;;;14.51;9.04;;;;;;;;;;363521;146;857191;-60
2021/08/29 01:25:46;;;;;;;16.84;9.49;;;;;;;;;;364722;144;857165;-59
2021/08/29 01:26:56;;;;;;;17.38;9.98;;;;;;;;;;363406;144;857203;-60
2021/08/29 01:28:06;;;;;;;16.93;9.93;;;;;;;;;;364914;146;858108;-60
2021/08/29 01:29:08;;;;;;;12.49;9.22;;;;;;;;;;361929;147;858302;-60
2021/08/29 01:30:10;;;;;;;16.80;9.69;;;;;;;;;;363629;144;857879;-59
2021/08/29 01:31:11;;;;;;;14.72;8.69;;;;;;;;;;362483;145;864927;-60
2021/08/29 01:32:13;;;;;;;13.27;9.31;;;;;;;;;;362649;146;857168;-59
2021/08/29 01:33:15;;;;;;;12.73;9.22;;;;;;;;;;354984;147;857069;-59
2021/08/29 01:34:17;;;;;;;14.95;8.99;;;;;;;;;;351543;149;864949;-59
2021/08/29 01:35:18;;;;;;;17.28;10.09;;;;;;;;;;362776;147;858777;-59
2021/08/29 01:36:21;;;;;;;12.33;8.71;;;;;;;;;;362695;144;858175;-59
2021/08/29 01:37:22;;;;;;;12.69;9.13;;;;;;;;;;362617;144;858184;-60
2021/08/29 01:38:24;;;;;;;14.88;9.45;;;;;;;;;;362568;144;858617;-59
2021/08/29 01:39:25;;;;;;;14.41;8.96;;;;;;;;;;362986;146;857991;-59
2021/08/29 01:40:28;;;;;;;16.87;9.30;;;;;;;;;;362896;144;857747;-59
2021/08/29 01:41:31;;;;;;;13.77;9.52;;;;;;;;;;362489;145;858714;-59
2021/08/29 01:42:32;;;;;;;13.36;9.63;;;;;;;;;;362975;146;865038;-59
2021/08/29 01:43:34;;;;;;;14.66;9.21;;;;;;;;;;362471;144;857249;-60
2021/08/29 01:44:36;;;;;;;13.88;9.14;;;;;;;;;;363493;145;857165;-59
2021/08/29 01:45:37;;;;;;;14.00;9.39;;;;;;;;;;364101;146;857211;-59
2021/08/29 01:46:40;;;;;;;17.33;9.51;;;;;;;;;;366099;146;858852;-59
2021/08/29 01:47:42;;;;;;;12.25;8.99;;;;;;;;;;363458;145;857276;-60
2021/08/29 01:48:44;;;;;;;16.90;9.29;;;;;;;;;;364484;146;857595;-59
2021/08/29 01:49:46;;;;;;;16.74;9.63;;;;;;;;;;363535;146;864768;-58
2021/08/29 01:50:47;;;;;;;14.39;10.25;;;;;;;;;;363056;144;857106;-58
2021/08/29 01:51:49;;;;;;;18.51;9.99;;;;;;;;;;362781;144;857390;-59
2021/08/29 01:52:50;;;;;;;18.56;9.35;;;;;;;;;;363048;146;857304;-60
2021/08/29 01:53:52;;;;;;;12.20;8.93;;;;;;;;;;363225;144;857180;-59
2021/08/29 01:54:54;;;;;;;15.55;9.39;;;;;;;;;;363697;144;858949;-58
2021/08/29 01:55:55;;;;;;;12.01;8.75;;;;;;;;;;363360;144;859005;-59
2021/08/29 01:57:04;;;;;;;18.90;9.11;;;;;;;;;;363034;146;857913;-59
2021/08/29 01:58:06;;;;;;;16.82;8.43;;;;;;;;;;362338;144;857186;-60
2021/08/29 01:59:07;;;;;;;13.82;8.50;;;;;;;;;;362881;144;859863;-59
2021/08/29 02:00:10;;;;;;;14.63;9.06;;;;;;;;;;364908;146;857321;-59
2021/08/29 02:01:11;;;;;;;15.67;8.09;;;;;;;;;;362613;144;857638;-59
2021/08/29 02:02:13;;;;;;;13.49;8.47;;;;;;;;;;363491;144;857669;-58
2021/08/29 02:03:15;;;;;;;17.94;8.73;;;;;;;;;;362607;144;857162;-58
2021/08/29 02:04:17;;;;;;;16.51;8.21;;;;;;;;;;362709;146;857007;-58
2021/08/29 02:05:18;;;;;;;10.81;8.41;;;;;;;;;;363466;144;859568;-59
2021/08/29 02:06:28;;;;;;;14.38;8.50;;;;;;;;;;362627;145;858939;-58
2021/08/29 02:07:35;;;;;;;14.08;8.62;;;;;;;;;;362414;147;857980;-58
2021/08/29 02:08:37;;;;;;;15.44;8.58;;;;;;;;;;357831;144;857268;-59
2021/08/29 02:09:43;;;;;;;15.01;8.01;;;;;;;;;;362519;145;858642;-58
2021/08/29 02:10:46;;;;;;;14.33;8.55;;;;;;;;;;363437;146;857143;-59
2021/08/29 02:11:50;;;;;;;16.79;8.70;;;;;;;;;;362271;148;857752;-59
2021/08/29 02:12:55;;;;;;;16.30;8.44;;;;;;;;;;363189;145;858294;-58
2021/08/29 02:13:57;;;;;;;11.99;8.53;;;;;;;;;;365626;145;857198;-60
2021/08/29 02:15:00;;;;;;;17.79;9.45;;;;;;;;;;365134;146;857205;-59
2021/08/29 02:16:04;;;;;;;12.84;8.35;;;;;;;;;;363833;145;866362;-59
2021/08/29 02:17:05;;;;;;;14.34;8.32;;;;;;;;;;361507;145;858910;-58
2021/08/29 02:18:07;;;;;;;12.51;9.25;;;;;;;;;;362450;146;857682;-59
2021/08/29 02:19:09;;;;;;;13.91;8.19;;;;;;;;;;362575;144;861710;-58
2021/08/29 02:20:13;;;;;;;14.45;8.95;;;;;;;;;;363229;145;857274;-58
2021/08/29 02:21:14;;;;;;;15.86;8.34;;;;;;;;;;367505;146;857652;-58
2021/08/29 02:22:16;;;;;;;15.11;8.61;;;;;;;;;;362311;145;857224;-59
2021/08/29 02:23:17;;;;;;;12.84;8.07;;;;;;;;;;364005;144;857520;-59
2021/08/29 02:24:26;;;;;;;13.61;7.99;;;;;;;;;;362484;145;858750;-58
2021/08/29 02:25:28;;;;;;;14.15;7.79;;;;;;;;;;348793;152;858730;-58
2021/08/29 02:26:31;;;;;;;19.35;8.43;;;;;;;;;;363933;144;857808;-58
2021/08/29 02:27:34;;;;;;;15.03;8.16;;;;;;;;;;362204;145;858996;-58
2021/08/29 02:28:36;;;;;;;14.20;8.05;;;;;;;;;;362151;146;860314;-59
2021/08/29 02:29:38;;;;;;;16.91;7.83;;;;;;;;;;365394;146;865857;-59
2021/08/29 02:30:40;;;;;;;14.58;7.83;;;;;;;;;;363315;145;857180;-59
2021/08/29 02:31:42;;;;;;;14.60;8.19;;;;;;;;;;363981;145;857167;-59
2021/08/29 02:32:44;;;;;;;18.11;7.83;;;;;;;;;;362667;146;857202;-58
2021/08/29 02:33:46;;;;;;;10.60;7.16;;;;;;;;;;362317;144;857089;-61
2021/08/29 02:34:48;;;;;;;14.35;7.25;;;;;;;;;;363345;145;857245;-58
2021/08/29 02:35:50;;;;;;;13.29;7.09;;;;;;;;;;362549;146;857352;-59
2021/08/29 02:36:52;;;;;;;11.78;7.35;;;;;;;;;;364312;144;857305;-58
2021/08/29 02:37:53;;;;;;;14.20;7.51;;;;;;;;;;363546;145;857200;-59
2021/08/29 02:38:55;;;;;;;15.34;7.36;;;;;;;;;;360900;146;857258;-59
2021/08/29 02:39:57;;;;;;;11.35;6.99;;;;;;;;;;359528;145;859114;-60
2021/08/29 02:41:00;;;;;;;14.36;7.53;;;;;;;;;;362894;145;858999;-59
2021/08/29 02:42:02;;;;;;;14.44;7.76;;;;;;;;;;362136;145;857347;-59
2021/08/29 02:43:04;;;;;;;17.91;7.83;;;;;;;;;;362339;148;857198;-60
2021/08/29 02:44:05;;;;;;;13.83;7.47;;;;;;;;;;362704;146;857484;-58
2021/08/29 02:45:08;;;;;;;15.67;7.30;;;;;;;;;;362668;145;859928;-59
2021/08/29 02:46:10;;;;;;;11.95;7.65;;;;;;;;;;364127;146;857171;-59
2021/08/29 02:47:13;;;;;;;12.56;7.13;;;;;;;;;;362876;146;858996;-59
2021/08/29 02:48:15;;;;;;;20.68;7.92;;;;;;;;;;362879;145;857652;-59
2021/08/29 02:49:22;;;;;;;12.05;7.24;;;;;;;;;;362157;145;857454;-59
2021/08/29 02:50:25;;;;;;;15.71;6.74;;;;;;;;;;362086;146;860370;-59
2021/08/29 02:51:26;;;;;;;12.36;6.91;;;;;;;;;;362509;145;858157;-59
2021/08/29 02:52:28;;;;;;;11.90;6.79;;;;;;;;;;362425;145;857510;-60
2021/08/29 02:53:30;;;;;;;10.19;6.39;;;;;;;;;;362687;146;857290;-60
2021/08/29 02:54:33;;;;;;;12.63;6.05;;;;;;;;;;362876;144;857389;-60
2021/08/29 02:55:34;;;;;;;10.43;6.30;;;;;;;;;;362192;145;859000;-59
2021/08/29 02:56:37;;;;;;;13.61;6.78;;;;;;;;;;362426;146;857545;-60
2021/08/29 02:57:39;;;;;;;13.23;6.92;;;;;;;;;;363714;144;859442;-59
2021/08/29 02:58:40;;;;;;;14.52;6.70;;;;;;;;;;362940;145;857148;-60
2021/08/29 02:59:43;;;;;;;10.05;6.67;;;;;;;;;;363300;146;857121;-59
2021/08/29 03:00:46;;;;;;;9.71;6.42;;;;;;;;;;365175;146;866681;-59
2021/08/29 03:01:48;;;;;;;12.23;6.61;;;;;;;;;;362597;144;857935;-60
2021/08/29 03:02:49;;;;;;;10.60;6.20;;;;;;;;;;362686;145;860322;-60
2021/08/29 03:03:51;;;;;;;10.39;6.49;;;;;;;;;;362566;146;857213;-59
2021/08/29 03:04:52;;;;;;;12.74;6.64;;;;;;;;;;362129;144;865561;-59
2021/08/29 03:05:54;;;;;;;10.16;6.23;;;;;;;;;;363670;146;859142;-60
2021/08/29 03:06:56;;;;;;;10.47;5.87;;;;;;;;;;362225;145;864773;-60
2021/08/29 03:07:58;;;;;;;13.23;6.33;;;;;;;;;;362477;146;857319;-61
2021/08/29 03:08:59;;;;;;;12.38;6.36;;;;;;;;;;362103;144;858972;-59
2021/08/29 03:10:01;;;;;;;10.46;6.01;;;;;;;;;;363097;145;857378;-60
2021/08/29 03:11:03;;;;;;;9.01;5.82;;;;;;;;;;363862;146;857151;-60
2021/08/29 03:12:05;;;;;;;7.49;5.69;;;;;;;;;;362448;144;865723;-59
2021/08/29 03:13:07;;;;;;;11.19;5.71;;;;;;;;;;362571;145;864906;-60
2021/08/29 03:14:08;;;;;;;8.14;5.71;;;;;;;;;;355610;146;858531;-59
2021/08/29 03:15:12;;;;;;;11.84;5.74;;;;;;;;;;358500;146;857135;-59
2021/08/29 03:16:16;;;;;;;9.66;6.39;;;;;;;;;;364606;144;857160;-59
2021/08/29 03:17:18;;;;;;;9.19;5.84;;;;;;;;;;365285;145;859118;-60
2021/08/29 03:18:19;;;;;;;9.51;6.39;;;;;;;;;;365748;145;857219;-60
2021/08/29 03:19:21;;;;;;;9.40;6.14;;;;;;;;;;362948;144;857273;-60
2021/08/29 03:20:24;;;;;;;11.93;5.76;;;;;;;;;;362976;145;859104;-60
2021/08/29 03:21:26;;;;;;;10.11;5.80;;;;;;;;;;362491;146;857257;-60
2021/08/29 03:22:28;;;;;;;13.61;6.15;;;;;;;;;;366984;144;858271;-60
2021/08/29 03:23:30;;;;;;;11.88;6.75;;;;;;;;;;362615;146;857409;-60
2021/08/29 03:24:31;;;;;;;12.09;6.27;;;;;;;;;;363243;145;857283;-59
2021/08/29 03:25:33;;;;;;;9.49;6.08;;;;;;;;;;363780;146;865871;-59
2021/08/29 03:26:36;;;;;;;13.55;6.21;;;;;;;;;;363107;144;857140;-60
2021/08/29 03:27:38;;;;;;;11.51;6.07;;;;;;;;;;363116;145;857245;-59
2021/08/29 03:28:40;;;;;;;9.60;5.85;;;;;;;;;;364958;146;857220;-59
2021/08/29 03:29:41;;;;;;;10.61;6.79;;;;;;;;;;362920;144;857920;-59
2021/08/29 03:30:43;;;;;;;10.48;6.48;;;;;;;;;;363162;145;857138;-60
2021/08/29 03:31:45;;;;;;;12.38;6.55;;;;;;;;;;364100;144;857236;-60
2021/08/29 03:32:46;;;;;;;8.23;6.16;;;;;;;;;;354980;149;857145;-60
2021/08/29 03:33:48;;;;;;;9.46;6.21;;;;;;;;;;362015;144;857262;-59
2021/08/29 03:34:50;;;;;;;11.23;6.33;;;;;;;;;;363283;145;857824;-59
2021/08/29 03:35:52;;;;;;;9.41;7.03;;;;;;;;;;362193;146;857219;-61
2021/08/29 03:36:54;;;;;;;8.69;6.67;;;;;;;;;;363617;144;865461;-59
2021/08/29 03:37:56;;;;;;;8.52;6.23;;;;;;;;;;363385;145;857691;-62
2021/08/29 03:38:57;;;;;;;10.59;6.76;;;;;;;;;;362453;146;858702;-62
2021/08/29 03:39:59;;;;;;;13.19;6.35;;;;;;;;;;362365;146;864954;-63
2021/08/29 03:41:01;;;;;;;10.83;6.67;;;;;;;;;;363706;144;857251;-62
2021/08/29 03:42:03;;;;;;;12.33;6.68;;;;;;;;;;362154;145;857248;-63
2021/08/29 03:43:05;;;;;;;8.14;6.49;;;;;;;;;;362269;146;857167;-59
2021/08/29 03:44:08;;;;;;;9.13;6.35;;;;;;;;;;362321;146;860743;-60
2021/08/29 03:45:10;;;;;;;10.86;7.02;;;;;;;;;;362435;145;861051;-59
2021/08/29 03:46:13;;;;;;;9.89;6.39;;;;;;;;;;362513;146;858458;-60
2021/08/29 03:47:15;;;;;;;10.01;6.81;;;;;;;;;;363231;144;858541;-60
2021/08/29 03:48:17;;;;;;;12.03;7.08;;;;;;;;;;364047;145;865281;-59
2021/08/29 03:49:19;;;;;;;8.64;6.36;;;;;;;;;;362436;145;858611;-59
2021/08/29 03:50:21;;;;;;;10.32;7.08;;;;;;;;;;367677;146;864919;-60
2021/08/29 03:51:23;;;;;;;8.90;6.19;;;;;;;;;;362206;144;857254;-61
2021/08/29 03:52:24;;;;;;;8.35;6.21;;;;;;;;;;362766;145;858592;-60
2021/08/29 03:53:26;;;;;;;8.77;6.41;;;;;;;;;;362792;146;857386;-60
2021/08/29 03:54:28;;;;;;;7.60;6.50;;;;;;;;;;363187;144;857339;-60
2021/08/29 03:55:29;;;;;;;8.31;6.33;;;;;;;;;;363783;145;864997;-60
2021/08/29 03:56:31;;;;;;;9.95;6.48;;;;;;;;;;362227;147;857429;-60
2021/08/29 03:57:33;;;;;;;11.89;6.86;;;;;;;;;;362375;148;857331;-60
2021/08/29 03:58:38;;;;;;;7.67;6.62;;;;;;;;;;363537;144;858287;-60
2021/08/29 03:59:40;;;;;;;9.63;6.52;;;;;;;;;;362894;145;857207;-60
2021/08/29 04:00:43;;;;;;;10.21;6.27;;;;;;;;;;363104;145;857240;-59
2021/08/29 04:01:44;;;;;;;8.11;6.10;;;;;;;;;;362343;144;858692;-59
2021/08/29 04:02:46;;;;;;;7.91;6.45;;;;;;;;;;363382;145;857280;-60
2021/08/29 04:03:48;;;;;;;8.77;6.35;;;;;;;;;;365845;145;865532;-58
2021/08/29 04:04:50;;;;;;;8.52;6.56;;;;;;;;;;363074;144;859032;-58
2021/08/29 04:05:51;;;;;;;9.99;6.58;;;;;;;;;;362020;145;866151;-60
2021/08/29 04:06:54;;;;;;;9.75;6.91;;;;;;;;;;362058;145;859165;-60
2021/08/29 04:07:56;;;;;;;11.01;6.39;;;;;;;;;;357873;149;859762;-59
2021/08/29 04:08:57;;;;;;;9.05;6.41;;;;;;;;;;357190;147;859483;-60
2021/08/29 04:09:59;;;;;;;10.24;6.38;;;;;;;;;;360694;145;864988;-61
2021/08/29 04:11:01;;;;;;;9.62;6.33;;;;;;;;;;363438;146;857688;-60
2021/08/29 04:12:03;;;;;;;9.90;6.53;;;;;;;;;;361024;146;857617;-60
2021/08/29 04:13:05;;;;;;;8.37;5.83;;;;;;;;;;364277;145;857558;-61
2021/08/29 04:14:07;;;;;;;9.08;6.54;;;;;;;;;;361311;146;858362;-61
2021/08/29 04:15:08;;;;;;;8.45;5.80;;;;;;;;;;366663;146;865077;-61
2021/08/29 04:16:11;;;;;;;9.01;5.71;;;;;;;;;;362293;145;858948;-60
2021/08/29 04:17:12;;;;;;;9.78;5.87;;;;;;;;;;361926;145;865829;-61
2021/08/29 04:18:14;;;;;;;8.19;6.11;;;;;;;;;;362352;146;857108;-60
2021/08/29 04:19:15;;;;;;;11.12;6.18;;;;;;;;;;361841;146;857088;-60
2021/08/29 04:20:18;;;;;;;10.37;6.47;;;;;;;;;;362067;145;857262;-63
2021/08/29 04:21:21;;;;;;;11.11;6.71;;;;;;;;;;361092;149;857260;-59
2021/08/29 04:22:23;;;;;;;13.30;6.22;;;;;;;;;;361146;146;859903;-59
2021/08/29 04:23:25;;;;;;;6.64;5.50;;;;;;;;;;360865;145;857384;-62
2021/08/29 04:24:27;;;;;;;8.36;6.16;;;;;;;;;;361884;146;864819;-62
2021/08/29 04:25:29;;;;;;;8.51;6.19;;;;;;;;;;361898;146;857309;-61
2021/08/29 04:26:31;;;;;;;9.22;6.14;;;;;;;;;;361795;146;865023;-60
2021/08/29 04:27:33;;;;;;;9.64;6.15;;;;;;;;;;361752;145;857288;-60
2021/08/29 04:28:35;;;;;;;9.15;5.75;;;;;;;;;;361162;146;860014;-61
2021/08/29 04:29:37;;;;;;;11.11;6.25;;;;;;;;;;361103;146;857666;-63
2021/08/29 04:30:41;;;;;;;7.19;5.83;;;;;;;;;;361863;146;857276;-63
2021/08/29 04:31:44;;;;;;;6.45;5.59;;;;;;;;;;361810;146;864695;-60
2021/08/29 04:32:47;;;;;;;7.51;6.03;;;;;;;;;;361272;145;858539;-62
2021/08/29 04:33:49;;;;;;;7.93;5.68;;;;;;;;;;361102;146;858580;-61
2021/08/29 04:34:51;;;;;;;7.65;5.27;;;;;;;;;;363198;145;858653;-63
2021/08/29 04:35:53;;;;;;;8.05;5.20;;;;;;;;;;361501;146;857718;-66
2021/08/29 04:36:56;;;;;;;6.46;4.90;;;;;;;;;;360856;146;857212;-64
2021/08/29 04:37:58;;;;;;;7.77;5.57;;;;;;;;;;362302;145;865325;-63
2021/08/29 04:39:00;;;;;;;5.71;4.56;;;;;;;;;;360937;146;864793;-63
2021/08/29 04:40:01;;;;;;;7.11;4.99;;;;;;;;;;360897;146;864776;-63
2021/08/29 04:41:03;;;;;;;6.40;4.73;;;;;;;;;;361442;146;857178;-63
2021/08/29 04:42:05;;;;;;;6.43;4.89;;;;;;;;;;361050;145;864664;-61
2021/08/29 04:43:06;;;;;;;6.84;4.57;;;;;;;;;;361559;146;857295;-63
2021/08/29 04:44:10;;;;;;;6.41;4.72;;;;;;;;;;361386;146;857260;-61
2021/08/29 04:45:11;;;;;;;7.56;4.44;;;;;;;;;;364506;145;857262;-61
2021/08/29 04:46:15;;;;;;;6.59;4.64;;;;;;;;;;361242;146;859141;-61
2021/08/29 04:47:16;;;;;;;7.25;4.02;;;;;;;;;;361251;146;857687;-62
2021/08/29 04:48:18;;;;;;;9.54;4.35;;;;;;;;;;361324;146;857830;-62
2021/08/29 04:49:19;;;;;;;5.87;4.11;;;;;;;;;;361378;146;857711;-64
2021/08/29 04:50:22;;;;;;;7.61;4.63;;;;;;;;;;363938;146;859131;-63
2021/08/29 04:51:23;;;;;;;5.47;4.06;;;;;;;;;;361893;146;864785;-63
2021/08/29 04:52:25;;;;;;;5.24;3.61;;;;;;;;;;365677;145;857901;-63
2021/08/29 04:53:27;;;;;;;4.47;3.72;;;;;;;;;;362162;146;858857;-62
2021/08/29 04:54:28;;;;;;;6.54;3.85;;;;;;;;;;361376;146;860448;-63
2021/08/29 04:55:30;;;;;;;5.74;3.96;;;;;;;;;;361940;146;864907;-64
2021/08/29 04:56:32;;;;;;;6.84;3.51;;;;;;;;;;361893;146;857369;-63
2021/08/29 04:57:34;;;;;;;5.40;3.21;;;;;;;;;;361180;149;858852;-63
2021/08/29 04:58:36;;;;;;;9.12;3.27;;;;;;;;;;361146;145;860202;-62
2021/08/29 04:59:37;;;;;;;6.06;3.31;;;;;;;;;;361818;145;857775;-63
2021/08/29 05:00:39;;;;;;;6.54;3.30;;;;;;;;;;360956;146;857167;-62
2021/08/29 05:01:40;;;;;;;5.54;2.81;;;;;;;;;;360975;146;857379;-62
2021/08/29 05:02:42;;;;;;;4.82;2.93;;;;;;;;;;361963;145;857224;-63
2021/08/29 05:03:44;;;;;;;4.86;2.77;;;;;;;;;;361000;146;857263;-62
2021/08/29 05:04:46;;;;;;;3.73;2.93;;;;;;;;;;361675;146;857709;-63
2021/08/29 05:05:47;;;;;;;3.64;2.94;;;;;;;;;;363483;145;857376;-62
2021/08/29 05:06:50;;;;;;;5.72;2.73;;;;;;;;;;362650;145;858681;-61
2021/08/29 05:07:51;;;;;;;4.37;2.60;;;;;;;;;;363254;146;859074;-63
2021/08/29 05:08:53;;;;;;;3.97;2.84;;;;;;;;;;363185;146;858693;-62
2021/08/29 05:09:55;;;;;;;10.02;2.84;;;;;;;;;;362825;145;858947;-62
2021/08/29 05:10:57;;;;;;;3.62;2.62;;;;;;;;;;362214;146;865438;-62
2021/08/29 05:11:59;;;;;;;7.30;3.19;;;;;;;;;;364109;144;864800;-62
2021/08/29 05:13:00;;;;;;;4.61;2.94;;;;;;;;;;365626;145;866579;-61
2021/08/29 05:14:02;;;;;;;3.78;2.56;;;;;;;;;;363642;145;857125;-61
2021/08/29 05:15:04;;;;;;;4.61;2.59;;;;;;;;;;363823;146;858837;-61
2021/08/29 05:16:07;;;;;;;4.20;2.16;;;;;;;;;;354059;150;858856;-61
2021/08/29 05:17:09;;;;;;;4.69;2.49;;;;;;;;;;354639;148;859137;-60
2021/08/29 05:18:10;;;;;;;5.91;2.51;;;;;;;;;;362557;146;857779;-61
2021/08/29 05:19:12;;;;;;;4.57;2.39;;;;;;;;;;364273;146;857625;-61
2021/08/29 05:20:13;;;;;;;3.28;2.47;;;;;;;;;;362465;145;857196;-61
2021/08/29 05:21:15;;;;;;;2.89;2.03;;;;;;;;;;362362;146;857173;-60
2021/08/29 05:22:17;;;;;;;3.48;2.44;;;;;;;;;;368214;146;857198;-59
2021/08/29 05:23:18;;;;;;;2.66;2.01;;;;;;;;;;362996;144;857188;-60
2021/08/29 05:24:20;;;;;;;3.52;2.28;;;;;;;;;;362111;145;859003;-60
2021/08/29 05:25:21;;;;;;;4.89;2.27;;;;;;;;;;362538;146;858986;-59
2021/08/29 05:26:24;;;;;;;2.96;2.05;;;;;;;;;;362523;146;859367;-62
2021/08/29 05:27:26;;;;;;;2.92;2.11;;;;;;;;;;362223;145;866644;-62
2021/08/29 05:28:27;;;;;;;3.88;2.00;;;;;;;;;;362134;148;864713;-62
2021/08/29 05:29:29;;;;;;;3.90;2.01;;;;;;;;;;364494;146;857360;-62
2021/08/29 05:30:32;;;;;;;5.37;1.98;;;;;;;;;;364266;145;857332;-62
2021/08/29 05:31:34;;;;;;;3.66;1.85;;;;;;;;;;362247;145;858680;-62
2021/08/29 05:32:35;;;;;;;3.96;1.91;;;;;;;;;;362082;146;857211;-62
2021/08/29 05:33:37;;;;;;;2.55;1.78;;;;;;;;;;362130;146;857313;-63
2021/08/29 05:34:38;;;;;;;3.19;1.78;;;;;;;;;;362737;145;857256;-63
2021/08/29 05:35:40;;;;;;;3.13;1.69;;;;;;;;;;364684;145;859378;-61
2021/08/29 05:36:43;;;;;;;6.69;1.94;;;;;;;;;;365139;144;858819;-61
2021/08/29 05:37:46;;;;;;;2.65;1.49;;;;;;;;;;362814;145;857258;-60
2021/08/29 05:38:48;;;;;;;1.91;1.55;;;;;;;;;;346784;152;857224;-63
2021/08/29 05:39:49;;;;;;;4.59;1.91;;;;;;;;;;346339;149;857494;-61
2021/08/29 05:40:52;;;;;;;2.80;1.72;;;;;;;;;;362358;144;857236;-61
2021/08/29 05:41:53;;;;;;;2.64;1.68;;;;;;;;;;363548;145;857282;-61
2021/08/29 05:42:55;;;;;;;2.23;1.59;;;;;;;;;;363734;146;858186;-62
2021/08/29 05:43:56;;;;;;;5.77;1.34;;;;;;;;;;363086;146;858087;-63
2021/08/29 05:44:58;;;;;;;4.22;1.44;;;;;;;;;;362646;145;857257;-61
2021/08/29 05:45:59;;;;;;;5.02;1.44;;;;;;;;;;362343;147;857210;-60
2021/08/29 05:47:01;;;;;;;2.65;1.63;;;;;;;;;;362408;148;857204;-62
2021/08/29 05:48:03;;;;;;;4.89;1.71;;;;;;;;;;363641;144;857219;-61
2021/08/29 05:49:04;;;;;;;4.01;1.54;;;;;;;;;;362541;145;858720;-62
2021/08/29 05:50:07;;;;;;;2.58;1.69;;;;;;;;;;364825;146;864357;-61
2021/08/29 05:51:08;;;;;;;3.71;1.68;;;;;;;;;;365123;144;857298;-61
2021/08/29 05:52:10;;;;;;;2.67;1.55;;;;;;;;;;362116;146;857148;-61
2021/08/29 05:53:11;;;;;;;3.36;1.59;;;;;;;;;;363561;146;857222;-61
2021/08/29 05:54:13;;;;;;;2.77;1.66;;;;;;;;;;362349;147;857312;-60
2021/08/29 05:55:14;;;;;;;2.84;1.79;;;;;;;;;;364670;145;857348;-61
2021/08/29 05:56:16;;;;;;;2.08;1.63;;;;;;;;;;363901;145;857220;-61
2021/08/29 05:57:18;;;;;;;4.20;2.17;;;;;;;;;;362276;148;864951;-61
2021/08/29 05:58:19;;;;;;;4.46;2.21;;;;;;;;;;363374;144;865325;-61
2021/08/29 05:59:21;;;;;;;4.97;1.39;;;;;;;;;;363610;145;863570;-59
2021/08/29 06:02:14;;;;;;;3.53;1.78;;;;;;;19.53;54.70;99735.41;369056;141;882070;-63
2021/08/29 06:03:16;;;;;;;2.72;1.69;;;;;;;19.57;53.67;99733.50;364124;146;859049;-61
2021/08/29 06:04:18;;;;;;;6.09;1.59;;;;;;;19.65;53.83;99733.97;359710;147;857748;-62